createdAt,value
2018-05-18T00:01:27.528Z,98.50
2018-05-18T00:03:54.726Z,98.50
2018-05-18T00:06:21.897Z,98.50
2018-05-18T00:08:48.271Z,98.50
2018-05-18T00:11:15.377Z,98.60
2018-05-18T00:13:42.682Z,98.60
2018-05-18T00:16:09.069Z,98.70
2018-05-18T00:18:36.350Z,98.70
2018-05-18T00:21:03.733Z,99.00
2018-05-18T00:23:30.846Z,99.20
2018-05-18T00:25:58.822Z,99.00
2018-05-18T00:28:25.152Z,99.10
2018-05-18T00:30:51.464Z,99.10
2018-05-18T00:33:17.846Z,99.20
2018-05-18T00:45:29.182Z,99.30
2018-05-18T00:47:55.587Z,99.50
2018-05-18T00:50:21.986Z,99.80
2018-05-18T00:52:48.362Z,99.90
2018-05-18T00:55:27.812Z,99.90
2018-05-18T00:57:55.009Z,99.90
2018-05-18T01:00:22.145Z,99.90
2018-05-18T01:02:48.630Z,99.70
2018-05-18T01:05:14.972Z,99.90
2018-05-18T01:07:41.373Z,99.90
2018-05-18T01:10:07.804Z,99.70
2018-05-18T01:12:34.151Z,99.50
2018-05-18T01:15:00.506Z,99.50
2018-05-18T01:17:26.841Z,99.70
2018-05-18T01:19:53.429Z,99.90
2018-05-18T01:22:20.784Z,99.90
2018-05-18T01:24:48.614Z,99.90
2018-05-18T01:27:16.494Z,99.90
2018-05-18T01:29:42.862Z,99.80
2018-05-18T01:32:09.279Z,99.60
2018-05-18T01:34:36.535Z,99.20
2018-05-18T01:37:03.604Z,99.30
2018-05-18T01:39:31.502Z,99.20
2018-05-18T01:41:57.958Z,99.60
2018-05-18T01:44:27.143Z,99.60
2018-05-18T01:46:53.489Z,99.50
2018-05-18T01:49:19.880Z,99.40
2018-05-18T01:51:47.675Z,99.50
2018-05-18T01:54:14.023Z,99.90
2018-05-18T01:56:41.171Z,99.90
2018-05-18T01:59:07.516Z,99.60
2018-05-18T02:01:35.543Z,99.40
2018-05-18T02:04:02.514Z,99.90
2018-05-18T02:06:28.883Z,99.80
2018-05-18T02:11:28.966Z,99.90
2018-05-18T02:13:56.004Z,99.90
2018-05-18T02:16:22.344Z,99.90
2018-05-18T02:18:50.504Z,99.90
2018-05-18T02:21:17.662Z,99.90
2018-05-18T02:23:45.212Z,99.90
2018-05-18T02:26:12.563Z,99.90
2018-05-18T02:28:38.995Z,99.90
2018-05-18T02:31:06.317Z,99.90
2018-05-18T02:33:33.974Z,99.90
2018-05-18T02:45:46.108Z,99.90
2018-05-18T02:48:13.507Z,99.90
2018-05-18T02:50:41.914Z,99.90
2018-05-18T02:53:08.363Z,99.90
2018-05-18T02:55:34.810Z,99.90
2018-05-18T02:58:01.248Z,99.90
2018-05-18T03:00:27.972Z,99.90
2018-05-18T03:02:54.372Z,99.90
2018-05-18T03:05:20.817Z,99.90
2018-05-18T03:07:48.091Z,99.90
2018-05-18T03:10:16.095Z,99.90
2018-05-18T03:12:42.939Z,99.90
2018-05-18T03:15:10.339Z,99.90
2018-05-18T03:17:36.726Z,99.90
2018-05-18T03:20:03.135Z,99.90
2018-05-18T03:22:32.628Z,99.90
2018-05-18T03:24:59.288Z,99.90
2018-05-18T03:27:26.621Z,99.90
2018-05-18T03:29:52.928Z,99.90
2018-05-18T03:32:19.252Z,99.90
2018-05-18T03:34:47.128Z,99.90
2018-05-18T03:37:14.353Z,99.80
2018-05-18T03:39:40.673Z,99.90
2018-05-18T03:42:07.046Z,99.90
2018-05-18T03:44:33.386Z,99.60
2018-05-18T03:46:59.683Z,99.60
2018-05-18T03:49:25.996Z,99.50
2018-05-18T03:51:52.428Z,99.70
2018-05-18T03:54:18.783Z,99.80
2018-05-18T03:56:46.691Z,99.60
2018-05-18T03:59:13.051Z,99.60
2018-05-18T04:01:51.585Z,99.40
2018-05-18T04:04:30.121Z,99.80
2018-05-18T04:07:09.688Z,99.30
2018-05-18T04:09:36.774Z,99.00
2018-05-18T04:12:03.865Z,98.70
2018-05-18T04:14:31.157Z,98.30
2018-05-18T04:16:57.489Z,98.50
2018-05-18T04:19:23.830Z,98.90
2018-05-18T04:21:50.917Z,98.30
2018-05-18T04:24:17.242Z,98.30
2018-05-18T04:36:28.562Z,98.20
2018-05-18T04:38:55.656Z,98.40
2018-05-18T04:41:22.971Z,98.40
2018-05-18T04:43:50.012Z,98.30
2018-05-18T04:46:16.334Z,98.20
2018-05-18T04:48:43.585Z,97.90
2018-05-18T04:51:11.644Z,97.30
2018-05-18T04:53:37.990Z,97.30
2018-05-18T04:56:04.318Z,96.90
2018-05-18T04:58:33.253Z,96.50
2018-05-18T05:00:59.649Z,97.20
2018-05-18T05:03:26.885Z,96.90
2018-05-18T05:05:53.235Z,96.80
2018-05-18T05:08:20.317Z,96.80
2018-05-18T05:10:46.668Z,96.60
2018-05-18T05:13:13.001Z,96.80
2018-05-18T05:15:39.343Z,96.50
2018-05-18T05:18:06.711Z,96.40
2018-05-18T05:20:33.069Z,96.20
2018-05-18T05:23:00.157Z,95.70
2018-05-18T05:25:26.448Z,95.70
2018-05-18T05:27:53.508Z,95.60
2018-05-18T05:30:20.552Z,94.70
2018-05-18T05:32:47.588Z,94.70
2018-05-18T05:35:13.898Z,94.60
2018-05-18T05:37:40.297Z,94.70
2018-05-18T05:40:06.583Z,94.60
2018-05-18T05:42:33.623Z,94.70
2018-05-18T05:45:00.723Z,93.80
2018-05-18T05:47:27.014Z,93.80
2018-05-18T05:49:54.041Z,93.10
2018-05-18T05:52:20.333Z,93.10
2018-05-18T05:54:47.711Z,92.90
2018-05-18T05:57:14.998Z,92.90
2018-05-18T05:59:42.049Z,92.60
2018-05-18T06:02:09.091Z,93.80
2018-05-18T06:04:36.155Z,93.60
2018-05-18T06:07:03.212Z,92.50
2018-05-18T06:09:29.628Z,92.50
2018-05-18T06:11:55.976Z,93.20
2018-05-18T06:14:22.326Z,92.80
2018-05-18T06:16:48.603Z,92.30
2018-05-18T06:19:14.920Z,92.60
2018-05-18T06:21:41.260Z,91.80
2018-05-18T06:24:07.541Z,91.70
2018-05-18T06:26:33.821Z,92.00
2018-05-18T06:29:00.115Z,91.40
2018-05-18T06:31:26.405Z,90.80
2018-05-18T06:33:53.469Z,88.50
2018-05-18T06:36:19.761Z,88.50
2018-05-18T06:38:46.049Z,86.30
2018-05-18T06:41:12.346Z,88.60
2018-05-18T06:43:38.647Z,87.40
2018-05-18T06:46:04.979Z,89.50
2018-05-18T06:48:31.278Z,89.40
2018-05-18T06:50:57.607Z,89.70
2018-05-18T06:53:23.898Z,88.10
2018-05-18T06:55:50.960Z,86.40
2018-05-18T06:58:17.248Z,86.40
2018-05-18T07:00:43.543Z,82.60
2018-05-18T07:03:09.822Z,83.70
2018-05-18T07:05:36.155Z,84.20
2018-05-18T07:08:03.965Z,83.60
2018-05-18T07:10:30.332Z,83.60
2018-05-18T07:12:56.627Z,84.10
2018-05-18T07:15:22.933Z,81.60
2018-05-18T07:17:49.977Z,82.10
2018-05-18T07:20:17.027Z,82.30
2018-05-18T07:22:44.107Z,80.60
2018-05-18T07:25:10.405Z,80.50
2018-05-18T07:27:37.455Z,82.60
2018-05-18T07:30:04.560Z,82.30
2018-05-18T07:32:30.833Z,82.40
2018-05-18T07:34:59.084Z,80.50
2018-05-18T07:37:25.384Z,80.50
2018-05-18T07:39:51.691Z,80.50
2018-05-18T07:42:18.009Z,78.40
2018-05-18T07:44:44.299Z,77.60
2018-05-18T07:47:10.605Z,75.70
2018-05-18T07:49:36.933Z,74.90
2018-05-18T07:52:03.359Z,75.80
2018-05-18T07:54:29.752Z,75.70
2018-05-18T07:56:56.985Z,73.00
2018-05-18T07:59:24.088Z,70.30
2018-05-18T08:01:50.488Z,70.20
2018-05-18T08:04:18.527Z,65.90
2018-05-18T08:06:45.379Z,65.80
2018-05-18T08:09:13.208Z,69.80
2018-05-18T08:11:42.300Z,69.80
2018-05-18T08:14:08.687Z,70.40
2018-05-18T08:16:35.826Z,68.30
2018-05-18T08:19:02.975Z,67.50
2018-05-18T08:21:29.350Z,67.50
2018-05-18T08:23:55.757Z,61.10
2018-05-18T08:26:24.489Z,56.20
2018-05-18T08:29:04.348Z,56.20
2018-05-18T08:31:31.624Z,54.40
2018-05-18T08:33:58.737Z,53.30
2018-05-18T08:36:25.108Z,53.30
2018-05-18T08:38:51.479Z,53.50
2018-05-18T08:41:17.823Z,51.80
2018-05-18T08:43:44.148Z,51.20
2018-05-18T08:46:11.169Z,48.50
2018-05-18T08:48:38.467Z,47.40
2018-05-18T08:51:05.700Z,46.10
2018-05-18T08:53:33.237Z,48.30
2018-05-18T08:55:59.590Z,48.30
2018-05-18T09:11:21.067Z,50.80
2018-05-18T09:13:48.140Z,45.30
2018-05-18T09:16:14.587Z,45.00
2018-05-18T09:18:40.990Z,44.70
2018-05-18T09:21:08.024Z,45.30
2018-05-18T09:23:34.312Z,45.20
2018-05-18T09:26:00.625Z,46.10
2018-05-18T09:28:26.929Z,45.50
2018-05-18T09:30:53.976Z,43.60
2018-05-18T09:33:20.991Z,45.00
2018-05-18T09:35:47.284Z,45.00
2018-05-18T09:38:13.573Z,45.90
2018-05-18T09:40:39.872Z,44.20
2018-05-18T09:43:06.187Z,45.90
2018-05-18T09:45:32.487Z,43.80
2018-05-18T09:47:58.748Z,43.30
2018-05-18T09:50:25.073Z,44.20
2018-05-18T09:52:51.364Z,43.20
2018-05-18T09:55:18.557Z,43.70
2018-05-18T09:57:44.859Z,43.70
2018-05-18T10:00:11.913Z,43.50
2018-05-18T10:02:38.973Z,44.80
2018-05-18T10:05:05.283Z,45.30
2018-05-18T10:07:32.343Z,43.50
2018-05-18T10:09:58.622Z,43.50
2018-05-18T10:12:24.949Z,43.90
2018-05-18T10:14:51.215Z,44.90
2018-05-18T10:17:18.490Z,42.20
2018-05-18T10:19:44.780Z,42.10
2018-05-18T10:22:11.070Z,39.30
2018-05-18T10:24:37.359Z,37.00
2018-05-18T10:27:04.471Z,37.10
2018-05-18T10:29:30.730Z,37.10
2018-05-18T10:31:57.793Z,38.80
2018-05-18T10:34:24.814Z,41.80
2018-05-18T10:36:51.124Z,41.80
2018-05-18T10:39:17.421Z,41.60
2018-05-18T10:41:43.727Z,41.70
2018-05-18T10:44:10.009Z,44.10
2018-05-18T10:46:36.293Z,44.30
2018-05-18T10:49:03.354Z,43.90
2018-05-18T10:51:29.637Z,43.80
2018-05-18T10:53:55.931Z,42.50
2018-05-18T10:56:22.342Z,41.60
2018-05-18T10:58:48.631Z,43.50
2018-05-18T11:01:14.943Z,42.70
2018-05-18T11:03:41.268Z,42.10
2018-05-18T11:06:11.079Z,42.60
2018-05-18T11:08:37.367Z,44.60
2018-05-18T11:11:04.394Z,46.50
2018-05-18T11:13:30.691Z,46.50
2018-05-18T11:15:56.983Z,48.20
2018-05-18T11:18:24.016Z,51.00
2018-05-18T11:20:51.047Z,51.40
2018-05-18T11:23:17.340Z,51.40
2018-05-18T11:25:43.655Z,52.20
2018-05-18T11:28:09.948Z,49.30
2018-05-18T11:30:36.265Z,47.70
2018-05-18T11:33:02.619Z,47.00
2018-05-18T11:35:28.868Z,47.50
2018-05-18T11:37:55.153Z,48.90
2018-05-18T11:40:21.435Z,48.20
2018-05-18T11:42:47.751Z,47.50
2018-05-18T11:45:14.044Z,46.40
2018-05-18T11:47:40.350Z,47.90
2018-05-18T11:50:06.638Z,47.60
2018-05-18T11:52:33.688Z,48.50
2018-05-18T11:54:59.964Z,48.60
2018-05-18T11:57:26.230Z,49.80
2018-05-18T11:59:53.274Z,53.00
2018-05-18T12:02:19.578Z,52.50
2018-05-18T12:04:45.865Z,51.50
2018-05-18T12:07:12.157Z,50.50
2018-05-18T12:09:38.442Z,49.40
2018-05-18T12:12:04.735Z,47.30
2018-05-18T12:14:31.765Z,49.40
2018-05-18T12:16:58.057Z,49.40
2018-05-18T12:19:24.345Z,49.50
2018-05-18T12:21:50.634Z,48.80
2018-05-18T12:24:16.931Z,49.20
2018-05-18T12:26:43.225Z,50.10
2018-05-18T12:29:09.548Z,50.60
2018-05-18T12:31:35.941Z,50.30
2018-05-18T12:34:02.177Z,52.30
2018-05-18T12:36:28.503Z,49.80
2018-05-18T12:38:54.846Z,47.90
2018-05-18T12:41:21.157Z,49.00
2018-05-18T12:43:47.457Z,47.60
2018-05-18T12:46:13.747Z,48.20
2018-05-18T12:48:40.045Z,48.50
2018-05-18T12:51:06.339Z,49.10
2018-05-18T12:53:33.438Z,50.30
2018-05-18T12:55:59.824Z,50.10
2018-05-18T12:58:26.249Z,48.50
2018-05-18T13:00:52.587Z,48.70
2018-05-18T13:03:19.636Z,48.50
2018-05-18T13:05:47.495Z,49.30
2018-05-18T13:08:15.198Z,49.50
2018-05-18T13:10:41.538Z,49.50
2018-05-18T13:13:08.837Z,51.50
2018-05-18T13:15:35.991Z,51.90
2018-05-18T13:18:03.297Z,51.40
2018-05-18T13:20:29.656Z,51.30
2018-05-18T13:22:55.972Z,49.30
2018-05-18T13:25:22.321Z,52.00
2018-05-18T13:27:49.356Z,50.80
2018-05-18T13:30:16.520Z,51.30
2018-05-18T13:32:42.843Z,50.50
2018-05-18T13:35:10.221Z,50.90
2018-05-18T13:37:37.320Z,51.90
2018-05-18T13:40:03.697Z,51.90
2018-05-18T13:42:30.014Z,51.70
2018-05-18T13:44:56.382Z,50.90
2018-05-18T13:47:22.723Z,52.20
2018-05-18T13:49:49.068Z,49.10
2018-05-18T13:52:15.373Z,49.80
2018-05-18T13:54:42.458Z,48.10
2018-05-18T13:57:08.867Z,48.10
2018-05-18T13:59:35.635Z,49.40
2018-05-18T14:02:01.972Z,51.20
2018-05-18T14:14:13.276Z,51.50
2018-05-18T14:16:39.578Z,53.00
2018-05-18T14:19:05.885Z,52.60
2018-05-18T14:21:32.204Z,50.40
2018-05-18T14:23:58.492Z,52.20
2018-05-18T14:26:25.617Z,54.10
2018-05-18T14:28:52.595Z,52.40
2018-05-18T14:31:19.626Z,52.40
2018-05-18T14:33:45.920Z,52.40
2018-05-18T14:36:12.238Z,53.30
2018-05-18T14:38:38.555Z,52.70
2018-05-18T14:41:04.863Z,52.40
2018-05-18T14:43:31.157Z,51.00
2018-05-18T14:45:57.489Z,52.00
2018-05-18T14:48:23.772Z,51.80
2018-05-18T14:50:50.073Z,53.30
2018-05-18T14:53:17.182Z,55.00
2018-05-18T14:55:43.501Z,54.20
2018-05-18T14:58:09.852Z,54.00
2018-05-18T15:00:36.166Z,54.50
2018-05-18T15:03:02.497Z,54.20
2018-05-18T15:05:28.795Z,54.30
2018-05-18T15:07:55.137Z,56.10
2018-05-18T15:10:21.428Z,55.20
2018-05-18T15:12:47.725Z,54.70
2018-05-18T15:15:14.037Z,53.10
2018-05-18T15:17:40.337Z,54.20
2018-05-18T15:20:07.402Z,55.10
2018-05-18T15:22:33.785Z,55.00
2018-05-18T15:25:00.853Z,55.00
2018-05-18T15:27:27.177Z,56.20
2018-05-18T15:29:53.500Z,56.10
2018-05-18T15:32:19.790Z,56.00
2018-05-18T15:34:46.094Z,55.00
2018-05-18T15:37:13.229Z,56.40
2018-05-18T15:39:39.454Z,56.50
2018-05-18T15:42:05.750Z,55.80
2018-05-18T15:44:32.075Z,57.40
2018-05-18T15:46:58.376Z,58.30
2018-05-18T15:49:24.709Z,57.30
2018-05-18T15:51:51.751Z,57.10
2018-05-18T15:54:18.061Z,57.10
2018-05-18T15:56:44.364Z,56.70
2018-05-18T15:59:11.406Z,56.50
2018-05-18T16:01:37.707Z,56.50
2018-05-18T16:04:04.147Z,56.20
2018-05-18T16:06:30.486Z,58.10
2018-05-18T16:08:56.796Z,58.60
2018-05-18T16:11:23.119Z,59.90
2018-05-18T16:13:49.444Z,59.00
2018-05-18T16:16:16.490Z,59.10
2018-05-18T16:18:43.525Z,58.50
2018-05-18T16:21:10.600Z,58.30
2018-05-18T16:23:37.666Z,59.50
2018-05-18T16:26:04.006Z,59.50
2018-05-18T16:28:30.329Z,60.00
2018-05-18T16:30:56.656Z,62.00
2018-05-18T16:33:22.977Z,59.20
2018-05-18T16:35:49.272Z,59.30
2018-05-18T16:38:15.577Z,58.80
2018-05-18T16:40:41.883Z,59.90
2018-05-18T16:43:08.203Z,58.90
2018-05-18T16:45:34.529Z,59.10
2018-05-18T16:48:00.887Z,60.30
2018-05-18T16:50:27.168Z,59.00
2018-05-18T16:52:54.283Z,57.90
2018-05-18T16:55:20.545Z,57.90
2018-05-18T16:57:47.568Z,58.70
2018-05-18T17:00:13.901Z,58.70
2018-05-18T17:02:40.226Z,60.70
2018-05-18T17:05:06.529Z,59.50
2018-05-18T17:07:32.834Z,58.50
2018-05-18T17:09:59.135Z,59.30
2018-05-18T17:12:25.452Z,59.90
2018-05-18T17:14:52.485Z,61.80
2018-05-18T17:17:19.528Z,62.40
2018-05-18T17:19:45.929Z,62.50
2018-05-18T17:22:12.149Z,64.20
2018-05-18T17:24:39.168Z,64.20
2018-05-18T17:27:05.507Z,64.20
2018-05-18T17:29:31.804Z,64.30
2018-05-18T17:31:58.135Z,64.40
2018-05-18T17:34:24.438Z,64.70
2018-05-18T17:36:50.738Z,65.50
2018-05-18T17:39:17.778Z,65.70
2018-05-18T17:41:44.138Z,65.60
2018-05-18T17:44:10.442Z,66.60
2018-05-18T17:46:36.756Z,67.20
2018-05-18T17:49:03.110Z,66.10
2018-05-18T17:51:30.135Z,67.20
2018-05-18T17:53:56.423Z,67.20
2018-05-18T17:56:26.188Z,67.00
2018-05-18T17:58:53.660Z,68.30
2018-05-18T18:01:20.816Z,68.80
2018-05-18T18:03:47.950Z,68.80
2018-05-18T18:06:15.859Z,70.60
2018-05-18T18:08:42.429Z,70.60
2018-05-18T18:11:09.057Z,71.50
2018-05-18T18:13:38.336Z,71.10
2018-05-18T18:16:05.293Z,71.90
2018-05-18T18:18:31.712Z,71.80
2018-05-18T18:21:00.330Z,72.00
2018-05-18T18:33:12.668Z,73.10
2018-05-18T18:35:39.028Z,75.50
2018-05-18T18:38:06.421Z,75.70
2018-05-18T18:50:18.112Z,76.10
2018-05-18T18:52:44.538Z,78.90
2018-05-18T18:55:11.838Z,79.40
2018-05-18T19:07:23.256Z,80.00
2018-05-18T19:09:49.646Z,82.40
2018-05-18T19:12:16.753Z,82.50
2018-05-18T19:14:43.182Z,82.50
2018-05-18T19:17:09.555Z,82.80
2018-05-18T19:19:35.935Z,82.80
2018-05-18T19:22:02.611Z,84.30
2018-05-18T19:24:30.042Z,85.20
2018-05-18T19:26:57.219Z,85.20
2018-05-18T19:29:24.429Z,85.40
2018-05-18T19:31:50.785Z,85.60
2018-05-18T19:34:18.269Z,86.80
2018-05-18T19:36:45.526Z,87.10
2018-05-18T19:39:11.880Z,87.00
2018-05-18T19:41:38.977Z,87.40
2018-05-18T19:44:06.186Z,87.40
2018-05-18T19:46:32.521Z,88.30
2018-05-18T19:48:59.612Z,88.40
2018-05-18T19:51:25.972Z,88.40
2018-05-18T19:53:52.902Z,88.00
2018-05-18T19:56:19.198Z,89.00
2018-05-18T19:58:46.188Z,88.90
2018-05-18T20:01:13.262Z,89.30
2018-05-18T20:03:40.378Z,90.10
2018-05-18T20:06:06.619Z,90.10
2018-05-18T20:08:34.982Z,90.10
2018-05-18T20:11:02.276Z,90.10
2018-05-18T20:13:28.647Z,90.40
2018-05-18T20:15:54.993Z,90.30
2018-05-18T20:18:21.292Z,90.40
2018-05-18T20:20:47.590Z,90.30
2018-05-18T20:23:13.888Z,90.50
2018-05-18T20:25:40.213Z,90.70
2018-05-18T20:28:10.324Z,90.60
2018-05-18T20:30:37.592Z,90.80
2018-05-18T20:33:03.877Z,91.00
2018-05-18T20:35:30.170Z,91.00
2018-05-18T20:37:56.564Z,91.10
2018-05-18T20:40:22.914Z,91.20
2018-05-18T20:42:49.238Z,91.20
2018-05-18T20:45:15.656Z,91.60
2018-05-18T20:47:41.988Z,91.60
2018-05-18T20:50:08.331Z,91.60
2018-05-18T20:52:34.663Z,91.80
2018-05-18T20:55:00.979Z,91.80
2018-05-18T20:57:30.692Z,91.90
2018-05-18T20:59:57.010Z,91.90
2018-05-18T21:02:23.758Z,92.00
2018-05-18T21:04:50.082Z,92.00
2018-05-18T21:07:16.368Z,92.60
2018-05-18T21:09:42.739Z,92.50
2018-05-18T21:12:09.042Z,92.70
2018-05-18T21:14:35.358Z,92.80
2018-05-18T21:17:01.684Z,92.90
2018-05-18T21:19:28.229Z,92.70
2018-05-18T21:21:56.280Z,92.80
2018-05-18T21:24:22.568Z,92.80
2018-05-18T21:26:48.912Z,93.10
2018-05-18T21:29:15.335Z,93.20
2018-05-18T21:31:41.668Z,93.20
2018-05-18T21:34:09.508Z,93.20
2018-05-18T21:36:37.581Z,93.30
2018-05-18T21:39:05.771Z,93.30
2018-05-18T21:41:33.830Z,93.50
2018-05-18T21:44:01.254Z,94.00
2018-05-18T21:46:27.600Z,94.00
2018-05-18T21:48:53.886Z,94.00
2018-05-18T21:51:20.208Z,94.60
2018-05-18T21:53:47.502Z,94.10
2018-05-18T21:56:14.062Z,94.00
2018-05-18T21:58:40.360Z,94.10
2018-05-18T22:01:06.700Z,94.40
2018-05-18T22:03:33.011Z,94.60
2018-05-18T22:06:00.177Z,94.60
2018-05-18T22:08:26.494Z,95.00
2018-05-18T22:10:53.128Z,95.20
2018-05-18T22:13:19.470Z,95.40
2018-05-18T22:15:45.794Z,95.30
2018-05-18T22:18:12.155Z,95.10
2018-05-18T22:20:38.476Z,95.10
2018-05-18T22:23:05.606Z,95.50
2018-05-18T22:25:31.992Z,95.50
2018-05-18T22:27:58.350Z,95.60
2018-05-18T22:30:24.712Z,96.00
2018-05-18T22:32:52.022Z,96.00
2018-05-18T22:35:19.286Z,96.10
2018-05-18T22:37:46.354Z,96.20
2018-05-18T22:40:12.716Z,96.30
2018-05-18T22:42:39.946Z,96.20
2018-05-18T22:45:06.608Z,96.10
2018-05-18T22:47:34.056Z,96.10
2018-05-18T22:50:00.382Z,96.30
2018-05-18T22:52:26.691Z,96.60
2018-05-18T22:54:53.023Z,96.70
2018-05-18T22:57:19.347Z,97.00
2018-05-18T22:59:45.716Z,96.90
2018-05-18T23:11:57.226Z,96.90
2018-05-18T23:14:24.230Z,97.90
2018-05-18T23:16:50.576Z,98.00
2018-05-18T23:19:17.676Z,97.80
2018-05-18T23:21:44.002Z,97.80
2018-05-18T23:24:11.135Z,97.80
2018-05-18T23:26:39.000Z,98.30
2018-05-18T23:29:05.360Z,98.30
2018-05-18T23:31:32.067Z,98.30
2018-05-18T23:34:00.043Z,98.40
2018-05-18T23:36:27.338Z,98.60
2018-05-18T23:38:55.156Z,98.70
2018-05-18T23:51:06.543Z,98.80
2018-05-18T23:53:33.140Z,99.20
2018-05-18T23:55:59.499Z,99.30
2018-05-18T23:58:25.826Z,99.20
